createdAt,value
2023-04-18T00:00:46.376Z,0.80
2023-04-18T00:03:18.960Z,0.30
2023-04-18T00:05:49.923Z,0.30
2023-04-18T00:08:19.327Z,0.60
2023-04-18T00:10:48.995Z,0.30
2023-04-18T00:13:19.561Z,0.70
2023-04-18T00:15:49.188Z,1.07
2023-04-18T00:18:21.684Z,0.60
2023-04-18T00:20:51.413Z,0.80
2023-04-18T00:23:21.626Z,0.87
2023-04-18T00:25:51.121Z,0.20
2023-04-18T00:28:20.431Z,0.40
2023-04-18T00:30:49.787Z,0.70
2023-04-18T00:33:21.835Z,0.80
2023-04-18T00:35:51.651Z,0.53
2023-04-18T00:38:21.085Z,0.63
2023-04-18T00:40:50.617Z,0.80
2023-04-18T00:43:20.007Z,0.50
2023-04-18T00:45:49.398Z,0.97
2023-04-18T00:48:21.625Z,0.63
2023-04-18T00:50:51.058Z,1.20
2023-04-18T00:53:20.449Z,0.53
2023-04-18T00:55:50.702Z,0.83
2023-04-18T00:58:20.471Z,0.40
2023-04-18T01:00:51.275Z,1.20
2023-04-18T01:03:24.326Z,0.80
2023-04-18T01:05:54.029Z,0.60
2023-04-18T01:08:24.609Z,0.50
2023-04-18T01:10:54.113Z,0.60
2023-04-18T01:13:23.942Z,0.50
2023-04-18T01:15:55.879Z,0.90
2023-04-18T01:18:28.162Z,1.73
2023-04-18T01:21:00.824Z,0.80
2023-04-18T01:23:30.599Z,0.37
2023-04-18T01:26:02.858Z,0.83
2023-04-18T01:28:32.553Z,0.50
2023-04-18T01:31:02.054Z,0.93
2023-04-18T01:33:31.612Z,0.53
2023-04-18T01:36:01.036Z,0.70
2023-04-18T01:38:30.560Z,0.70
2023-04-18T01:41:02.592Z,0.70
2023-04-18T01:43:32.240Z,0.30
2023-04-18T01:46:01.584Z,0.50
2023-04-18T01:48:31.102Z,1.03
2023-04-18T01:51:00.429Z,1.03
2023-04-18T01:53:29.796Z,0.43
2023-04-18T01:56:01.893Z,0.83
2023-04-18T01:58:31.376Z,0.73
2023-04-18T02:01:01.000Z,0.90
2023-04-18T02:03:30.449Z,1.13
2023-04-18T02:06:00.035Z,0.53
2023-04-18T02:08:30.890Z,0.73
2023-04-18T02:11:03.843Z,0.67
2023-04-18T02:13:33.337Z,1.10
2023-04-18T02:16:02.737Z,0.90
2023-04-18T02:18:34.653Z,1.10
2023-04-18T02:21:03.952Z,0.90
2023-04-18T02:23:33.260Z,1.20
2023-04-18T02:26:05.155Z,0.60
2023-04-18T02:28:35.070Z,1.47
2023-04-18T02:31:04.419Z,1.73
2023-04-18T02:33:36.807Z,1.27
2023-04-18T02:36:07.084Z,1.30
2023-04-18T02:38:36.421Z,1.30
2023-04-18T02:41:08.417Z,0.90
2023-04-18T02:43:37.777Z,0.70
2023-04-18T02:46:07.446Z,0.87
2023-04-18T02:48:36.816Z,1.50
2023-04-18T02:51:09.746Z,1.53
2023-04-18T02:53:39.106Z,1.00
2023-04-18T02:56:11.911Z,1.27
2023-04-18T02:58:41.245Z,1.23
2023-04-18T03:01:10.657Z,1.80
2023-04-18T03:03:40.056Z,0.87
2023-04-18T03:06:09.726Z,1.70
2023-04-18T03:08:39.250Z,0.90
2023-04-18T03:11:11.540Z,1.47
2023-04-18T03:13:41.368Z,1.67
2023-04-18T03:16:11.674Z,1.10
2023-04-18T03:18:41.007Z,1.20
2023-04-18T03:21:10.421Z,1.13
2023-04-18T03:23:39.892Z,2.30
2023-04-18T03:26:13.166Z,1.13
2023-04-18T03:28:42.716Z,0.93
2023-04-18T03:31:13.038Z,1.20
2023-04-18T03:33:42.482Z,1.30
2023-04-18T03:36:11.986Z,1.87
2023-04-18T03:38:41.634Z,1.87
2023-04-18T03:41:14.094Z,1.53
2023-04-18T03:43:43.440Z,1.40
2023-04-18T03:46:12.885Z,1.83
2023-04-18T03:48:42.258Z,1.67
2023-04-18T03:51:11.778Z,1.80
2023-04-18T03:53:41.146Z,1.67
2023-04-18T03:56:13.350Z,1.23
2023-04-18T03:58:42.758Z,1.13
2023-04-18T04:01:12.933Z,1.30
2023-04-18T04:03:42.515Z,1.13
2023-04-18T04:06:12.360Z,1.27
2023-04-18T04:08:42.189Z,1.27
2023-04-18T04:11:14.318Z,2.17
2023-04-18T04:13:43.707Z,2.33
2023-04-18T04:16:13.168Z,1.43
2023-04-18T04:18:42.593Z,1.43
2023-04-18T04:21:11.935Z,1.73
2023-04-18T04:23:42.077Z,1.53
2023-04-18T04:26:15.188Z,1.30
2023-04-18T04:28:46.729Z,1.60
2023-04-18T04:31:17.212Z,1.57
2023-04-18T04:33:46.763Z,2.10
2023-04-18T04:36:19.208Z,1.33
2023-04-18T04:38:48.678Z,1.90
2023-04-18T04:41:21.003Z,1.77
2023-04-18T04:43:51.372Z,1.90
2023-04-18T04:46:23.297Z,1.10
2023-04-18T04:48:54.606Z,2.63
2023-04-18T04:51:24.037Z,1.93
2023-04-18T04:53:53.494Z,1.20
2023-04-18T04:56:25.940Z,1.63
2023-04-18T04:58:56.344Z,2.10
2023-04-18T05:01:26.060Z,1.53
2023-04-18T05:03:55.560Z,1.67
2023-04-18T05:06:25.019Z,2.33
2023-04-18T05:08:54.995Z,2.53
2023-04-18T05:11:26.914Z,2.40
2023-04-18T05:13:56.315Z,2.23
2023-04-18T05:16:25.909Z,1.60
2023-04-18T05:18:55.513Z,1.70
2023-04-18T05:21:26.317Z,2.17
2023-04-18T05:23:56.012Z,2.13
2023-04-18T05:26:27.998Z,1.93
2023-04-18T05:28:57.389Z,1.90
2023-04-18T05:31:26.976Z,2.03
2023-04-18T05:33:56.714Z,1.83
2023-04-18T05:36:26.844Z,1.37
2023-04-18T05:38:56.228Z,1.47
2023-04-18T05:41:28.132Z,1.27
2023-04-18T05:44:16.950Z,2.10
2023-04-18T05:46:46.464Z,1.60
2023-04-18T05:49:15.840Z,1.40
2023-04-18T05:51:45.212Z,2.13
2023-04-18T05:54:14.959Z,1.83
2023-04-18T05:56:47.641Z,1.33
2023-04-18T05:59:17.027Z,1.83
2023-04-18T06:01:47.249Z,1.57
2023-04-18T06:04:17.065Z,1.97
2023-04-18T06:06:46.710Z,1.23
2023-04-18T06:09:16.031Z,1.30
2023-04-18T06:11:48.058Z,2.33
2023-04-18T06:14:17.373Z,2.27
2023-04-18T06:16:46.700Z,1.57
2023-04-18T06:19:16.082Z,1.40
2023-04-18T06:21:45.801Z,1.13
2023-04-18T06:24:15.397Z,1.57
2023-04-18T06:26:45.111Z,1.70
2023-04-18T06:29:18.228Z,1.33
2023-04-18T06:31:48.507Z,1.27
2023-04-18T06:34:18.185Z,1.50
2023-04-18T06:36:47.667Z,3.13
2023-04-18T06:39:17.001Z,1.80
2023-04-18T06:41:46.359Z,1.20
2023-04-18T06:44:18.417Z,1.70
2023-04-18T06:46:48.190Z,1.37
2023-04-18T06:49:17.573Z,1.37
2023-04-18T06:51:46.924Z,1.17
2023-04-18T06:54:16.309Z,1.23
2023-04-18T06:56:45.778Z,1.30
2023-04-18T06:59:17.688Z,0.90
2023-04-18T07:01:47.093Z,0.80
2023-04-18T07:04:16.616Z,1.10
2023-04-18T07:06:46.186Z,1.57
2023-04-18T07:09:15.545Z,1.27
2023-04-18T07:11:44.948Z,0.47
2023-04-18T07:14:14.929Z,1.10
2023-04-18T07:16:47.047Z,1.17
2023-04-18T07:19:16.469Z,1.63
2023-04-18T07:21:46.148Z,0.73
2023-04-18T07:24:15.748Z,0.73
2023-04-18T07:26:45.559Z,0.80
2023-04-18T07:29:14.869Z,0.83
2023-04-18T07:31:46.797Z,0.70
2023-04-18T07:34:17.460Z,1.27
2023-04-18T07:36:46.908Z,0.33
2023-04-18T07:39:16.223Z,0.53
2023-04-18T07:41:45.556Z,0.97
2023-04-18T07:44:15.013Z,0.83
2023-04-18T07:46:47.277Z,1.80
2023-04-18T07:49:16.851Z,0.93
2023-04-18T07:51:46.278Z,0.87
2023-04-18T07:54:15.868Z,1.03
2023-04-18T07:56:45.247Z,0.87
2023-04-18T07:59:14.859Z,1.17
2023-04-18T08:01:46.895Z,0.77
2023-04-18T08:04:16.470Z,0.83
2023-04-18T08:06:45.969Z,0.80
2023-04-18T08:09:15.663Z,1.03
2023-04-18T08:11:45.484Z,0.83
2023-04-18T08:14:15.087Z,0.77
2023-04-18T08:16:47.063Z,0.60
2023-04-18T08:19:16.613Z,0.57
2023-04-18T08:21:46.135Z,1.17
2023-04-18T08:24:15.603Z,0.73
2023-04-18T08:26:44.907Z,0.90
2023-04-18T08:29:14.753Z,0.97
2023-04-18T08:31:46.799Z,1.77
2023-04-18T08:34:16.175Z,0.93
2023-04-18T08:36:45.909Z,0.50
2023-04-18T08:39:15.436Z,0.80
2023-04-18T08:41:47.105Z,0.57
2023-04-18T08:44:17.702Z,1.00
2023-04-18T08:46:49.595Z,1.13
2023-04-18T08:49:22.710Z,1.00
2023-04-18T08:51:53.364Z,0.70
2023-04-18T08:54:24.629Z,0.70
2023-04-18T08:57:07.553Z,0.37
2023-04-18T08:59:37.210Z,0.40
2023-04-18T09:02:10.314Z,0.63
2023-04-18T09:04:41.230Z,0.37
2023-04-18T09:07:13.001Z,0.47
2023-04-18T09:09:46.929Z,0.30
2023-04-18T09:12:18.404Z,0.60
2023-04-18T09:14:51.187Z,0.50
2023-04-18T09:17:41.818Z,0.70
2023-04-18T09:20:12.748Z,0.60
2023-04-18T09:22:48.782Z,0.23
2023-04-18T09:25:29.359Z,0.30
2023-04-18T09:28:01.141Z,0.77
2023-04-18T09:30:48.771Z,0.57
2023-04-18T09:33:20.886Z,0.57
2023-04-18T09:35:51.982Z,0.70
2023-04-18T09:38:21.364Z,0.43
2023-04-18T09:41:09.969Z,0.30
2023-04-18T09:43:39.523Z,0.57
2023-04-18T09:46:11.093Z,0.63
2023-04-18T09:48:44.139Z,0.30
2023-04-18T09:51:17.441Z,0.37
2023-04-18T09:53:47.909Z,0.20
2023-04-18T09:56:25.854Z,0.33
2023-04-18T09:58:59.825Z,0.40
2023-04-18T10:01:31.204Z,0.40
2023-04-18T10:04:06.557Z,0.73
2023-04-18T10:06:39.823Z,0.30
2023-04-18T10:09:12.203Z,0.40
2023-04-18T10:11:42.080Z,0.47
2023-04-18T10:14:15.649Z,0.63
2023-04-18T10:16:49.904Z,0.30
2023-04-18T10:19:27.768Z,0.30
2023-04-18T10:21:58.424Z,0.10
2023-04-18T10:24:57.849Z,0.20
2023-04-18T10:28:01.500Z,0.23
2023-04-18T10:30:54.280Z,0.50
2023-04-18T10:33:33.781Z,0.80
2023-04-18T10:36:08.573Z,0.40
2023-04-18T10:38:45.485Z,0.30
2023-04-18T10:41:16.906Z,0.40
2023-04-18T10:44:13.417Z,0.27
2023-04-18T10:46:45.064Z,0.20
2023-04-18T10:49:18.526Z,0.10
2023-04-18T10:51:51.649Z,0.70
2023-04-18T10:54:31.795Z,0.77
2023-04-18T10:57:03.578Z,0.20
2023-04-18T10:59:34.310Z,0.73
2023-04-18T11:02:08.191Z,0.75
2023-04-18T11:04:38.125Z,0.10
2023-04-18T11:07:10.144Z,0.50
2023-04-18T11:09:39.461Z,0.47
2023-04-18T11:12:10.683Z,0.65
2023-04-18T11:14:43.708Z,0.60
2023-04-18T11:17:23.868Z,0.40
2023-04-18T11:19:53.972Z,0.52
2023-04-18T11:22:26.051Z,0.20
2023-04-18T11:25:00.141Z,0.37
2023-04-18T11:27:29.525Z,0.65
2023-04-18T11:30:00.646Z,0.30
2023-04-18T11:32:30.085Z,0.40
2023-04-18T11:34:59.656Z,0.40
2023-04-18T11:37:32.486Z,0.40
2023-04-18T11:40:02.027Z,0.50
2023-04-18T11:42:35.474Z,0.73
2023-04-18T11:45:06.110Z,0.45
2023-04-18T11:47:37.026Z,0.45
2023-04-18T11:50:08.362Z,0.32
2023-04-18T11:52:42.627Z,0.35
2023-04-18T11:55:17.965Z,0.40
2023-04-18T11:57:54.456Z,0.80
2023-04-18T12:00:35.124Z,0.30
2023-04-18T12:03:08.922Z,0.43
2023-04-18T12:05:41.211Z,0.25
2023-04-18T12:08:15.201Z,0.45
2023-04-18T12:10:50.665Z,0.15
2023-04-18T12:13:20.691Z,0.28
2023-04-18T12:15:50.101Z,0.50
2023-04-18T12:18:21.561Z,0.30
2023-04-18T12:20:54.919Z,0.40
2023-04-18T12:23:42.923Z,0.73
2023-04-18T12:26:18.262Z,0.85
2023-04-18T12:28:48.507Z,0.50
2023-04-18T12:31:17.947Z,0.15
2023-04-18T12:33:47.290Z,0.93
2023-04-18T12:36:16.774Z,0.40
2023-04-18T12:38:49.198Z,0.93
2023-04-18T12:41:19.515Z,0.40
2023-04-18T12:43:48.862Z,1.05
2023-04-18T12:46:18.202Z,0.20
2023-04-18T12:48:47.523Z,0.35
2023-04-18T12:51:16.895Z,0.30
2023-04-18T12:53:48.773Z,0.30
2023-04-18T12:56:18.177Z,0.43
2023-04-18T12:58:47.497Z,0.10
2023-04-18T13:01:17.249Z,0.40
2023-04-18T13:03:53.482Z,0.50
2023-04-18T13:06:29.524Z,0.47
2023-04-18T13:09:01.505Z,0.82
2023-04-18T13:11:30.983Z,0.40
2023-04-18T13:14:00.299Z,0.50
2023-04-18T13:16:29.691Z,0.50
2023-04-18T13:18:59.092Z,0.55
2023-04-18T13:21:28.395Z,0.47
2023-04-18T13:23:57.690Z,0.28
2023-04-18T13:26:29.615Z,0.65
2023-04-18T13:28:59.109Z,0.60
2023-04-18T13:31:28.609Z,0.47
2023-04-18T13:33:57.959Z,0.45
2023-04-18T13:36:27.830Z,0.47
2023-04-18T13:38:57.726Z,0.55
2023-04-18T13:41:29.990Z,0.55
2023-04-18T13:43:59.320Z,0.40
2023-04-18T13:46:29.288Z,0.57
2023-04-18T13:48:58.704Z,0.70
2023-04-18T13:51:28.393Z,1.05
2023-04-18T13:53:57.701Z,0.73
2023-04-18T13:56:29.834Z,0.30
2023-04-18T13:58:59.190Z,0.40
2023-04-18T14:01:28.667Z,0.60
2023-04-18T14:04:00.986Z,0.85
2023-04-18T14:06:30.632Z,0.47
2023-04-18T14:09:00.208Z,0.38
2023-04-18T14:11:32.155Z,1.08
2023-04-18T14:14:01.503Z,0.70
2023-04-18T14:16:33.490Z,0.88
2023-04-18T14:19:03.759Z,0.60
2023-04-18T14:21:33.191Z,1.50
2023-04-18T14:24:02.536Z,0.82
2023-04-18T14:26:34.506Z,1.00
2023-04-18T14:29:04.463Z,0.47
2023-04-18T14:31:33.845Z,0.68
2023-04-18T14:34:03.240Z,0.52
2023-04-18T14:36:32.778Z,0.73
2023-04-18T14:39:02.566Z,0.93
2023-04-18T14:41:34.481Z,0.65
2023-04-18T14:44:04.204Z,0.90
2023-04-18T14:46:33.586Z,0.60
2023-04-18T14:49:02.953Z,0.68
2023-04-18T14:51:32.307Z,0.57
2023-04-18T14:54:01.713Z,0.90
2023-04-18T14:56:33.650Z,0.90
2023-04-18T14:59:03.390Z,0.32
2023-04-18T15:01:32.744Z,0.70
2023-04-18T15:04:04.416Z,0.57
2023-04-18T15:06:33.866Z,0.77
2023-04-18T15:09:03.180Z,0.60
2023-04-18T15:11:35.097Z,0.38
2023-04-18T15:14:04.597Z,0.75
2023-04-18T15:16:35.416Z,0.43
2023-04-18T15:19:04.771Z,0.43
2023-04-18T15:21:34.119Z,0.70
2023-04-18T15:24:03.510Z,0.45
2023-04-18T15:26:35.723Z,0.52
2023-04-18T15:29:05.541Z,0.50
2023-04-18T15:31:36.210Z,0.70
2023-04-18T15:34:07.284Z,0.68
2023-04-18T15:36:36.849Z,0.60
2023-04-18T15:39:06.862Z,0.28
2023-04-18T15:41:42.250Z,0.30
2023-04-18T15:44:11.967Z,0.50
2023-04-18T15:46:41.957Z,0.50
2023-04-18T15:49:11.325Z,0.63
2023-04-18T15:51:40.628Z,0.95
2023-04-18T15:54:10.196Z,0.80
2023-04-18T15:56:43.986Z,1.10
2023-04-18T15:59:13.844Z,0.82
2023-04-18T16:01:45.669Z,0.60
2023-04-18T16:04:15.742Z,0.60
2023-04-18T16:06:45.301Z,0.35
2023-04-18T16:09:14.726Z,0.57
2023-04-18T16:11:46.924Z,0.50
2023-04-18T16:14:16.460Z,0.75
2023-04-18T16:16:46.009Z,0.35
2023-04-18T16:19:15.545Z,0.32
2023-04-18T16:21:47.049Z,0.70
2023-04-18T16:24:17.781Z,0.50
2023-04-18T16:26:49.676Z,0.68
2023-04-18T16:29:19.039Z,0.80
2023-04-18T16:31:48.421Z,0.55
2023-04-18T16:34:18.048Z,0.75
2023-04-18T16:36:49.643Z,0.50
2023-04-18T16:39:20.068Z,0.70
2023-04-18T16:41:52.054Z,0.75
2023-04-18T16:44:21.353Z,0.63
2023-04-18T16:46:50.708Z,0.73
2023-04-18T16:49:20.662Z,0.40
2023-04-18T16:51:50.064Z,0.45
2023-04-18T16:54:19.369Z,0.43
2023-04-18T16:56:48.807Z,0.95
2023-04-18T16:59:20.980Z,0.60
2023-04-18T17:01:50.442Z,0.30
2023-04-18T17:04:19.824Z,0.50
2023-04-18T17:06:50.961Z,0.55
2023-04-18T17:09:21.451Z,0.47
2023-04-18T17:11:50.768Z,0.47
2023-04-18T17:14:22.857Z,0.32
2023-04-18T17:16:53.741Z,0.40
2023-04-18T17:19:23.342Z,0.45
2023-04-18T17:21:53.157Z,0.65
2023-04-18T17:24:22.680Z,0.70
2023-04-18T17:26:52.651Z,0.47
2023-04-18T17:29:24.789Z,0.35
2023-04-18T17:31:55.531Z,0.40
2023-04-18T17:34:24.864Z,0.30
2023-04-18T17:36:54.181Z,0.40
2023-04-18T17:39:23.507Z,0.50
2023-04-18T17:41:52.852Z,0.28
2023-04-18T17:44:24.783Z,0.30
2023-04-18T17:46:54.101Z,0.43
2023-04-18T17:49:23.829Z,0.30
2023-04-18T17:51:53.183Z,0.30
2023-04-18T17:54:22.509Z,0.45
2023-04-18T17:56:51.808Z,0.60
2023-04-18T17:59:23.821Z,0.20
2023-04-18T18:01:53.186Z,0.13
2023-04-18T18:04:25.835Z,0.25
2023-04-18T18:06:56.947Z,0.52
2023-04-18T18:09:26.820Z,0.20
2023-04-18T18:11:56.201Z,0.70
2023-04-18T18:14:29.396Z,0.20
2023-04-18T18:16:58.817Z,0.17
2023-04-18T18:19:28.357Z,0.13
2023-04-18T18:21:57.721Z,0.30
2023-04-18T18:24:27.583Z,0.32
2023-04-18T18:26:59.712Z,0.20
2023-04-18T18:29:31.600Z,0.25
2023-04-18T18:32:00.959Z,0.30
2023-04-18T18:34:32.106Z,0.20
2023-04-18T18:37:03.729Z,0.30
2023-04-18T18:39:33.040Z,0.50
2023-04-18T18:42:06.267Z,0.40
2023-04-18T18:44:38.169Z,0.20
2023-04-18T18:47:07.559Z,0.32
2023-04-18T18:49:36.874Z,0.40
2023-04-18T18:52:06.829Z,0.30
2023-04-18T18:54:36.799Z,0.30
2023-04-18T18:57:06.258Z,0.28
2023-04-18T18:59:38.230Z,0.40
2023-04-18T19:02:07.717Z,0.25
2023-04-18T19:04:37.220Z,0.40
2023-04-18T19:07:09.903Z,0.30
2023-04-18T19:09:39.441Z,0.30
2023-04-18T19:12:10.071Z,0.30
2023-04-18T19:14:42.512Z,0.32
2023-04-18T19:17:11.941Z,0.52
2023-04-18T19:19:42.124Z,0.20
2023-04-18T19:22:11.549Z,0.95
2023-04-18T19:24:40.869Z,0.20
2023-04-18T19:27:10.217Z,0.30
2023-04-18T19:29:42.248Z,0.40
2023-04-18T19:32:11.790Z,0.55
2023-04-18T19:34:41.507Z,0.68
2023-04-18T19:37:10.831Z,0.43
2023-04-18T19:39:40.153Z,0.20
2023-04-18T19:42:09.528Z,0.20
2023-04-18T19:44:38.843Z,0.35
2023-04-18T19:47:11.037Z,0.32
2023-04-18T19:49:40.494Z,0.30
2023-04-18T19:52:09.839Z,0.35
2023-04-18T19:54:39.158Z,0.85
2023-04-18T19:57:08.484Z,0.20
2023-04-18T19:59:37.819Z,0.30
2023-04-18T20:02:09.809Z,0.35
2023-04-18T20:04:40.836Z,0.30
2023-04-18T20:07:10.343Z,0.60
2023-04-18T20:09:39.808Z,0.22
2023-04-18T20:12:09.136Z,0.40
2023-04-18T20:14:38.457Z,0.15
2023-04-18T20:17:10.471Z,0.43
2023-04-18T20:19:39.959Z,0.40
2023-04-18T20:22:09.519Z,0.20
2023-04-18T20:24:39.369Z,0.40
2023-04-18T20:27:08.730Z,0.30
2023-04-18T20:29:38.075Z,0.30
2023-04-18T20:32:10.133Z,0.47
2023-04-18T20:34:39.435Z,0.45
2023-04-18T20:37:10.191Z,0.20
2023-04-18T20:39:40.000Z,0.30
2023-04-18T20:42:14.312Z,0.22
2023-04-18T20:44:47.615Z,0.47
2023-04-18T20:47:19.574Z,0.55
2023-04-18T20:49:49.006Z,0.50
2023-04-18T20:52:18.426Z,0.20
2023-04-18T20:54:47.779Z,0.30
2023-04-18T20:57:17.118Z,0.37
2023-04-18T20:59:46.437Z,0.35
2023-04-18T21:02:15.981Z,0.40
2023-04-18T21:04:52.176Z,0.60
2023-04-18T21:07:21.722Z,0.53
2023-04-18T21:09:51.068Z,0.30
2023-04-18T21:12:20.552Z,0.67
2023-04-18T21:14:50.152Z,0.30
2023-04-18T21:17:19.684Z,0.13
2023-04-18T21:19:54.286Z,0.40
2023-04-18T21:22:26.494Z,0.60
2023-04-18T21:24:56.258Z,0.63
2023-04-18T21:27:25.922Z,0.33
2023-04-18T21:29:55.289Z,0.20
2023-04-18T21:32:24.803Z,0.33
2023-04-18T21:34:58.342Z,0.23
2023-04-18T21:37:27.859Z,0.40
2023-04-18T21:39:57.153Z,0.20
2023-04-18T21:42:29.105Z,0.40
2023-04-18T21:44:58.464Z,0.20
2023-04-18T21:47:27.814Z,0.20
2023-04-18T21:49:59.732Z,0.80
2023-04-18T21:52:29.048Z,0.40
2023-04-18T21:54:59.358Z,0.30
2023-04-18T21:57:28.707Z,0.33
2023-04-18T22:00:00.029Z,0.47
2023-04-18T22:02:29.957Z,0.30
2023-04-18T22:05:03.011Z,0.23
2023-04-18T22:07:32.425Z,0.30
2023-04-18T22:10:05.922Z,0.53
2023-04-18T22:12:35.386Z,0.30
2023-04-18T22:15:05.524Z,0.23
2023-04-18T22:17:35.125Z,0.30
2023-04-18T22:20:08.752Z,0.77
2023-04-18T22:22:38.058Z,0.20
2023-04-18T22:25:11.514Z,0.40
2023-04-18T22:27:42.658Z,0.20
2023-04-18T22:30:13.401Z,0.17
2023-04-18T22:32:42.844Z,0.30
2023-04-18T22:35:14.897Z,0.40
2023-04-18T22:37:44.236Z,0.47
2023-04-18T22:40:14.493Z,0.60
2023-04-18T22:42:43.820Z,0.47
2023-04-18T22:45:14.768Z,0.07
2023-04-18T22:47:44.163Z,0.23
2023-04-18T22:50:16.483Z,0.23
2023-04-18T22:52:45.808Z,0.20
2023-04-18T22:55:16.638Z,0.20
2023-04-18T22:57:46.011Z,0.37
2023-04-18T23:00:17.693Z,0.10
2023-04-18T23:02:47.192Z,0.10
2023-04-18T23:05:19.162Z,0.10
2023-04-18T23:07:48.480Z,0.13
2023-04-18T23:10:17.792Z,0.20
2023-04-18T23:12:47.119Z,0.30
2023-04-18T23:15:16.616Z,0.30
2023-04-18T23:17:46.045Z,0.20
2023-04-18T23:20:16.202Z,0.10
2023-04-18T23:22:50.094Z,0.20
2023-04-18T23:25:19.782Z,0.40
2023-04-18T23:27:49.726Z,0.10
2023-04-18T23:30:19.063Z,0.40
2023-04-18T23:32:48.452Z,0.20
2023-04-18T23:35:17.791Z,0.33
2023-04-18T23:37:50.271Z,0.27
2023-04-18T23:40:19.812Z,0.20
2023-04-18T23:42:49.146Z,0.10
2023-04-18T23:45:18.531Z,0.30
2023-04-18T23:47:47.994Z,0.73
2023-04-18T23:50:17.652Z,0.40
2023-04-18T23:52:49.534Z,0.30
2023-04-18T23:55:19.669Z,0.50
2023-04-18T23:57:49.029Z,0.20
